• Join FlightAware (Why Join?)
  • Login
  • US Flag 
09:49PM EDT


 

Airport Tracker/Info


-or-


 

Live Flight TrackerFlight Track Log ✈ EJA396 ✈ 30-Sep-2013 ✈ KBVY - KASE

Flight Track Log - Related Links

Times and Time Zones

All times are in EDT time to prevent confusion due to time zone crossing. See the EJA396 flight status page for this flight to view local times or setup timezone preferences in your user account.

Time Position Orientation Groundspeed Altitude Reporting Facility
EDT Latitude Longitude Course Direction KTS MPH feet Rate Location/Type
11:57AM 42.6000 -70.9333 318° Northwest 167 192 1,100  Level KA90
11:58AM 42.6353 -70.9764 318° Northwest 207 238 2,900 1,860 Climbing Boston Center
11:59AM 42.6486 -71.0578 283° West 227 261 4,700 2,580 Climbing Boston Center
12:00PM 42.6689 -71.1542 286° West 264 304 8,200 2,880 Climbing Boston Center
12:01PM 42.7347 -71.2225 323° Northwest 298 343 11,200 2,880 Climbing Boston Center
12:02PM 42.7878 -71.3503 300° West 342 394 14,800 2,880 Climbing Boston Center
12:03PM 42.8019 -71.4833 278° West 357 411 17,200 2,340 Climbing Boston Center
12:04PM 42.8172 -71.6425 278° West 375 432 19,600 2,280 Climbing Boston Center
12:05PM 42.8308 -71.7889 277° West 389 448 21,900 1,440 Climbing Boston Center
12:06PM 42.8439 -71.9356 277° West 391 450 23,000 1,620 Climbing Boston Center
12:07PM 42.8608 -72.1164 277° West 400 460 25,700 2,100 Climbing Boston Center
12:08PM 42.8761 -72.2817 277° West 406 467 27,300 1,500 Climbing Boston Center
12:09PM 42.8914 -72.4386 278° West 415 478 28,800 1,440 Climbing Boston Center
12:10PM 42.9050 -72.5969 277° West 421 484 30,300 1,500 Climbing Boston Center
12:11PM 42.9181 -72.7583 276° West 422 486 31,900 1,560 Climbing Boston Center
12:12PM 42.9350 -72.9497 277° West 423 487 33,500 1,200 Climbing Boston Center
12:14PM 42.9469 -73.0894 277° West 429 494 34,500 1,020 Climbing Boston Center
12:15PM 42.9597 -73.2500 276° West 428 493 35,700 1,200 Climbing Boston Center
12:16PM 42.9744 -73.4361 276° West 423 487 37,100 1,200 Climbing Boston Center
12:17PM 42.9867 -73.5944 276° West 419 482 38,200 1,080 Climbing Boston Center
12:18PM 42.9986 -73.7475 276° West 408 470 39,300 900 Climbing Boston Center
12:19PM 43.0100 -73.8989 276° West 400 460 40,300 840 Climbing Boston Center
12:20PM 43.0228 -74.0747 276° West 390 449 41,300 720 Climbing Boston Center
12:21PM 43.0336 -74.2225 276° West 390 449 41,800 480 Climbing Boston Center
12:22PM 43.0461 -74.3994 276° West 391 450 42,400 540 Climbing Boston Center
12:23PM 43.0556 -74.5458 275° West 389 448 42,900 240 Climbing Boston Center
12:24PM 43.0656 -74.6939 275° West 389 448 43,000  Climbing Boston Center
12:25PM 43.0756 -74.8436 275° West 393 452 43,000  Level Boston Center
12:26PM 43.0864 -75.0008 275° West 412 474 43,000  Level Boston Center
12:27PM 43.0978 -75.1589 276° West 416 479 43,000  Level Boston Center
12:28PM 43.1069 -75.3189 275° West 420 483 43,000  Level Boston Center
12:29PM 43.1164 -75.4819 275° West 425 489 43,000  Level Boston Center
12:30PM 43.1269 -75.6433 275° West 423 487 43,000  Level Boston Center
12:31PM 43.1383 -75.8047 276° West 424 488 43,000  Level Boston Center
12:32PM 43.1492 -75.9981 274° West 424 488 43,000  Level Boston Center
12:33PM 43.1586 -76.1594 275° West 425 489 43,000  Level Boston Center
12:34PM 43.1508 -76.3172 266° West 416 479 43,000  Level Boston Center
12:35PM 43.1378 -76.4744 264° West 415 478 43,000  Level Boston Center
12:36PM 43.1247 -76.6344 264° West 420 483 43,000  Level Boston Center
12:37PM 43.1094 -76.7953 263° West 425 489 43,000  Level Boston Center
12:38PM 43.1083 -76.9517 269° West 417 480 43,000  Level Boston Center
12:39PM 43.1064 -77.0428 268° West 413 475 43,000  Level Cleveland Center
12:40PM 43.1058 -77.2006 270° West 418 481 43,000  Level Cleveland Center
12:41PM 43.1047 -77.3558 269° West 414 476 43,000  Level Cleveland Center
12:42PM 43.1044 -77.5108 270° West 411 473 43,000  Level Cleveland Center
12:43PM 43.1028 -77.6981 269° West 415 478 43,000  Level Cleveland Center
12:44PM 43.1003 -77.8522 269° West 412 474 43,000  Level Cleveland Center
12:45PM 43.0992 -78.0083 269° West 414 476 43,000  Level Cleveland Center
12:46PM 43.0969 -78.1653 269° West 416 479 43,000  Level Cleveland Center
12:47PM 43.0944 -78.3225 269° West 416 479 43,000  Level Cleveland Center
12:48PM 43.0919 -78.5136 269° West 420 483 43,000  Level Cleveland Center
12:49PM 43.0881 -78.6744 268° West 424 488 43,000  Level Cleveland Center
12:50PM 43.0847 -78.8322 268° West 418 481 43,000  Level Cleveland Center
12:51PM 43.0833 -78.9333 269° West 420 483 43,000  Level Toronto Center
12:52PM 43.0667 -79.0833 261° West 420 483 43,000  Level Toronto Center
12:53PM 43.0667 -79.2500 270° West 420 483 43,000  Level Toronto Center
12:54PM 43.0667 -79.4333 270° West 420 483 43,000  Level Toronto Center
12:55PM 43.0667 -79.5667 270° West 420 483 43,000  Level Toronto Center
12:56PM 43.0500 -79.7167 261° West 420 483 43,000  Level Toronto Center
12:57PM 43.0500 -79.8833 270° West 420 483 43,000  Level Toronto Center
12:58PM 43.0500 -80.0500 270° West 420 483 43,000  Level Toronto Center
12:59PM 43.0500 -80.2000 270° West 420 483 43,000  Level Toronto Center
01:00PM 43.0333 -80.3667 262° West 420 483 43,000  Level Toronto Center
01:01PM 43.0333 -80.5167 270° West 420 483 43,000  Level Toronto Center
01:02PM 43.0333 -80.7000 270° West 420 483 43,000  Level Toronto Center
01:03PM 43.0000 -80.8333 251° West 410 472 43,000  Level Toronto Center
01:04PM 43.0000 -81.0000 270° West 410 472 43,000  Level Toronto Center
01:05PM 43.0000 -81.1667 270° West 410 472 43,000  Level Toronto Center
01:06PM 43.0000 -81.3167 270° West 410 472 43,000  Level Toronto Center
01:07PM 42.9833 -81.4833 262° West 410 472 43,000  Level Toronto Center
01:08PM 42.9833 -81.6167 270° West 410 472 43,000  Level Toronto Center
01:09PM 42.9833 -81.7833 270° West 410 472 43,000  Level Toronto Center
01:10PM 42.9667 -81.9333 261° West 410 472 43,000  Level Toronto Center
01:11PM 42.9500 -82.0667 260° West 400 460 43,000  Level Toronto Center
01:12PM 42.9500 -82.2333 270° West 400 460 43,000  Level Toronto Center
01:13PM 42.9500 -82.3833 270° West 400 460 43,000  Level Toronto Center
01:14PM 42.9500 -82.5500 270° West 400 460 43,000  Level Toronto Center
01:15PM 42.9458 -82.6883 268° West 403 464 43,000  Level Cleveland Center
01:16PM 42.9369 -82.8383 265° West 400 460 43,000  Level Cleveland Center
01:17PM 42.9278 -82.9883 265° West 400 460 43,000  Level Cleveland Center
01:18PM 42.9194 -83.1383 266° West 398 458 43,000  Level Cleveland Center
01:19PM 42.9103 -83.2867 265° West 395 455 43,000  Level Cleveland Center
01:20PM 42.8992 -83.4672 265° West 400 460 43,000  Level Cleveland Center
01:21PM 42.8900 -83.6181 265° West 402 463 43,000  Level Cleveland Center
01:22PM 42.8811 -83.7689 265° West 401 461 43,000  Level Cleveland Center
01:23PM 42.8717 -83.9194 265° West 400 460 43,000  Level Cleveland Center
01:24PM 42.8619 -84.0675 265° West 398 458 43,000  Level Cleveland Center
01:25PM 42.8500 -84.2469 265° West 399 459 43,000  Level Cleveland Center
01:26PM 42.8414 -84.3783 265° West 397 457 43,000  Level Cleveland Center
01:27PM 42.8297 -84.5583 265° West 398 458 43,000  Level Cleveland Center
01:28PM 42.8200 -84.7064 265° West 394 453 43,000  Level Cleveland Center
01:29PM 42.8000 -84.8000 254° West 400 460 43,000  Level Toronto Center
01:30PM 42.8036 -84.9164 272° West 398 458 43,000  Level Chicago Center
01:31PM 42.7933 -85.0644 265° West 394 453 43,000  Level Chicago Center
01:32PM 42.7817 -85.2122 264° West 393 452 43,000  Level Chicago Center
01:33PM 42.7703 -85.3608 264° West 395 455 43,000  Level Chicago Center
01:34PM 42.7556 -85.5403 264° West 397 457 43,000  Level Chicago Center
01:35PM 42.7436 -85.6917 264° West 400 460 43,000  Level Chicago Center
01:36PM 42.7314 -85.8425 264° West 399 459 43,000  Level Chicago Center
01:37PM 42.7189 -85.9947 264° West 400 460 43,000  Level Chicago Center
01:38PM 42.7067 -86.1472 264° West 402 463 43,000  Level Chicago Center
01:39PM 42.6942 -86.2986 264° West 400 460 43,000  Level Chicago Center
01:40PM 42.6806 -86.4478 263° West 400 460 43,000  Level Chicago Center
01:41PM 42.6636 -86.6319 263° West 407 468 43,000  Level Chicago Center
01:42PM 42.6500 -86.7861 263° West 409 471 43,000  Level Chicago Center
01:43PM 42.6358 -86.9397 263° West 411 473 43,000  Level Chicago Center
01:44PM 42.6217 -87.0933 263° West 409 471 43,000  Level Chicago Center
01:45PM 42.6078 -87.2478 263° West 413 475 43,000  Level Chicago Center
01:46PM 42.5908 -87.4250 263° West 411 473 43,000  Level Chicago Center
01:47PM 42.5783 -87.5608 263° West 411 473 43,000  Level Chicago Center
01:48PM 42.5608 -87.7453 263° West 413 475 43,000  Level Chicago Center
01:49PM 42.5461 -87.8878 262° West 412 474 43,000  Level Chicago Center
01:50PM 42.5308 -88.0419 262° West 412 474 43,000  Level Chicago Center
01:51PM 42.5150 -88.1933 262° West 407 468 43,000  Level Chicago Center
01:52PM 42.4967 -88.3792 262° West 410 472 43,000  Level Chicago Center
01:53PM 42.4794 -88.5350 262° West 415 478 43,000  Level Chicago Center
01:55PM 42.4636 -88.6925 262° West 419 482 43,000  Level Chicago Center
01:56PM 42.4467 -88.8461 262° West 417 480 43,000  Level Chicago Center
01:57PM 42.4292 -88.9997 261° West 414 476 43,000  Level Chicago Center
01:58PM 42.4131 -89.1536 262° West 413 475 43,000  Level Chicago Center
01:59PM 42.3911 -89.3394 261° West 416 479 43,000 -480 Level Chicago Center
02:00PM 42.3739 -89.4972 262° West 421 484 42,000 -960 Descending Chicago Center
02:01PM 42.3547 -89.6553 261° West 425 489 41,000 -1,020 Descending Chicago Center
02:02PM 42.3381 -89.8081 262° West 418 481 40,000 -540 Descending Chicago Center
02:03PM 42.3194 -89.9797 262° West 408 470 40,000  Level Chicago Center
02:04PM 42.3025 -90.1281 261° West 404 465 40,000  Level Chicago Center
02:05PM 42.2831 -90.2767 260° West 404 465 40,000  Level Chicago Center
02:06PM 42.2653 -90.4247 261° West 403 464 40,000  Level Chicago Center
02:07PM 42.2467 -90.5733 260° West 404 465 40,000  Level Chicago Center
02:08PM 42.2244 -90.7525 261° West 405 466 40,000  Level Chicago Center
02:09PM 42.2061 -90.9008 261° West 405 466 40,000  Level Chicago Center
02:10PM 42.1853 -91.0514 259° West 410 472 40,000  Level Chicago Center
02:11PM 42.1658 -91.2014 260° West 410 472 40,000  Level Chicago Center
02:12PM 42.1461 -91.3506 260° West 406 467 40,000  Level Chicago Center
02:13PM 42.1236 -91.5281 260° West 404 465 40,000  Level Chicago Center
02:14PM 42.1033 -91.6775 260° West 405 466 40,000  Level Chicago Center
02:15PM 42.0831 -91.8264 260° West 406 467 40,000  Level Chicago Center
02:16PM 42.0622 -91.9767 259° West 408 470 40,000  Level Chicago Center
02:17PM 42.0414 -92.1275 260° West 411 473 40,000  Level Chicago Center
02:18PM 42.0208 -92.2767 260° West 409 471 40,000  Level Chicago Center
02:19PM 41.9956 -92.4572 259° West 412 474 40,000  Level Chicago Center
02:20PM 41.9742 -92.6061 259° West 409 471 40,000  Level Chicago Center
02:21PM 41.9528 -92.7564 259° West 410 472 40,000  Level Chicago Center
02:23PM 41.9311 -92.9061 259° West 411 473 40,000  Level Chicago Center
02:23PM 41.9164 -93.0031 258° West 411 473 40,000  Level Minneapolis Center
02:24PM 41.8950 -93.1517 259° West 411 473 40,000  Level Minneapolis Center
02:25PM 41.8731 -93.2994 259° West 409 471 40,000  Level Minneapolis Center
02:26PM 41.8458 -93.4797 259° West 414 476 40,000  Level Minneapolis Center
02:27PM 41.8239 -93.6261 259° West 408 470 40,000  Level Minneapolis Center
02:28PM 41.8003 -93.7747 258° West 412 474 40,000  Level Minneapolis Center
02:29PM 41.7767 -93.9306 259° West 415 478 40,000  Level Minneapolis Center
02:30PM 41.7544 -94.0803 259° West 413 475 40,000  Level Minneapolis Center
02:31PM 41.7300 -94.2303 258° West 412 474 40,000  Level Minneapolis Center
02:32PM 41.7008 -94.4100 258° West 412 474 40,000  Level Minneapolis Center
02:33PM 41.6772 -94.5592 258° West 411 473 40,000  Level Minneapolis Center
02:34PM 41.6533 -94.7083 258° West 410 472 40,000  Level Minneapolis Center
02:36PM 41.6283 -94.8567 257° West 410 472 40,000  Level Minneapolis Center
02:37PM 41.6050 -95.0061 258° West 409 471 40,000  Level Minneapolis Center
02:38PM 41.5806 -95.1536 258° West 408 470 40,000  Level Minneapolis Center
02:39PM 41.5503 -95.3311 257° West 409 471 40,000  Level Minneapolis Center
02:40PM 41.5244 -95.4794 257° West 410 472 40,000  Level Minneapolis Center
02:41PM 41.4994 -95.6250 257° West 407 468 40,000  Level Minneapolis Center
02:42PM 41.4731 -95.7761 257° West 407 468 40,000  Level Minneapolis Center
02:43PM 41.4478 -95.9231 257° West 406 467 40,000  Level Minneapolis Center
02:44PM 41.4217 -96.0703 257° West 408 470 40,000  Level Minneapolis Center
02:45PM 41.3964 -96.2189 257° West 409 471 40,000  Level Minneapolis Center
02:46PM 41.3683 -96.3792 257° West 410 472 40,000  Level Minneapolis Center
02:47PM 41.3419 -96.5267 257° West 412 474 40,000  Level Minneapolis Center
02:48PM 41.3150 -96.6736 256° West 410 472 40,000  Level Minneapolis Center
02:49PM 41.2822 -96.8506 256° West 410 472 40,000  Level Minneapolis Center
02:50PM 41.2550 -96.9975 256° West 410 472 40,000  Level Minneapolis Center
02:51PM 41.2272 -97.1461 256° West 413 475 40,000  Level Minneapolis Center
02:52PM 41.1992 -97.2942 256° West 413 475 40,000  Level Minneapolis Center
02:53PM 41.1678 -97.4606 256° West 414 476 40,000  Level Minneapolis Center
02:54PM 41.1394 -97.6089 256° West 414 476 40,000  Level Minneapolis Center
02:55PM 41.1114 -97.7567 256° West 413 475 40,000  Level Minneapolis Center
02:56PM 41.0828 -97.9047 256° West 413 475 40,000  Level Minneapolis Center
02:57PM 41.0542 -98.0525 256° West 413 475 40,000  Level Minneapolis Center
02:58PM 41.0250 -98.2014 255° West 415 478 40,000  Level Minneapolis Center
02:59PM 40.9953 -98.3500 255° West 415 478 40,000  Level Minneapolis Center
03:00PM 40.9644 -98.5061 255° West 416 479 40,000  Level Minneapolis Center
03:01PM 40.9331 -98.6522 254° West 415 478 40,000  Level Minneapolis Center
03:02PM 40.8981 -98.8306 255° West 417 480 40,000  Level Minneapolis Center
03:03PM 40.8686 -98.9783 255° West 417 480 40,000  Level Minneapolis Center
03:04PM 40.8389 -99.1264 255° West 415 478 40,000  Level Minneapolis Center
03:05PM 40.8086 -99.2744 255° West 415 478 40,000  Level Denver Center
03:06PM 40.7786 -99.4214 255° West 414 476 40,000  Level Denver Center
03:08PM 40.7472 -99.5683 254° West 414 476 40,000  Level Denver Center
03:09PM 40.7167 -99.7153 255° West 416 479 40,000  Level Denver Center
03:10PM 40.6833 -99.8706 254° West 412 474 40,000  Level Denver Center
03:11PM 40.6481 -100.0358 254° West 417 480 40,000  Level Denver Center
03:12PM 40.6169 -100.1772 254° West 420 483 40,000  Level Denver Center
03:13PM 40.5817 -100.3431 254° West 419 482 40,000  Level Denver Center
03:14PM 40.5500 -100.4856 254° West 421 484 40,000  Level Denver Center
03:15PM 40.5125 -100.6533 254° West 424 488 40,000  Level Denver Center
03:16PM 40.4803 -100.7983 254° West 427 491 40,000  Level Denver Center
03:17PM 40.4494 -100.9422 254° West 426 490 40,000  Level Denver Center
03:18PM 40.4178 -101.1097 256° West 423 487 40,000  Level Denver Center
03:19PM 40.3903 -101.2550 256° West 426 490 40,000  Level Denver Center
03:20PM 40.3589 -101.4225 256° West 425 489 40,000  Level Denver Center
03:21PM 40.3306 -101.5653 255° West 424 488 40,000  Level Denver Center
03:22PM 40.2989 -101.7328 256° West 423 487 40,000  Level Denver Center
03:23PM 40.2700 -101.8758 255° West 424 488 40,000  Level Denver Center
03:24PM 40.2411 -102.0178 255° West 423 487 40,000  Level Denver Center
03:25PM 40.2086 -102.1856 256° West 424 488 40,000  Level Denver Center
03:26PM 40.1806 -102.3289 256° West 425 489 40,000  Level Denver Center
03:27PM 40.1464 -102.4956 255° West 425 489 40,000  Level Denver Center
03:28PM 40.1164 -102.6381 255° West 426 490 40,000  Level Denver Center
03:29PM 40.0808 -102.8075 255° West 428 493 40,000  Level Denver Center
03:30PM 40.0500 -102.9558 255° West 426 490 40,000  Level Denver Center
03:31PM 40.0186 -103.1050 255° West 427 491 40,000  Level Denver Center
03:32PM 39.9883 -103.2522 255° West 423 487 40,000  Level Denver Center
03:33PM 39.9564 -103.4006 254° West 426 490 40,000  Level Denver Center
03:34PM 39.9244 -103.5489 254° West 425 489 40,000  Level Denver Center
03:35PM 39.8864 -103.7253 254° West 424 488 40,000 -240 Level Denver Center
03:36PM 39.8547 -103.8747 255° West 424 488 39,600 -720 Descending Denver Center
03:37PM 39.8228 -104.0253 255° West 432 497 38,600 -1,020 Descending Denver Center
03:38PM 39.7903 -104.1706 254° West 421 484 37,600 -1,020 Descending Denver Center
03:40PM 39.7578 -104.3167 254° West 422 486 36,600 -1,020 Descending Denver Center
03:41PM 39.7222 -104.4731 254° West 424 488 35,500 -1,080 Descending Denver Center
03:42PM 39.6878 -104.6303 254° West 420 483 34,400 -1,020 Descending Denver Center
03:43PM 39.6728 -104.7800 263° West 416 479 33,400 -1,020 Descending Denver Center
03:44PM 39.6578 -104.9375 263° West 409 471 32,300 -1,020 Descending Denver Center
03:45PM 39.6422 -105.0808 262° West 403 464 31,300 -1,020 Descending Denver Center
03:46PM 39.6256 -105.2411 262° West 414 476 30,300 -660 Descending Denver Center
03:47PM 39.6092 -105.3928 262° West 427 491 30,000 -1,140 Descending Denver Center
03:48PM 39.5711 -105.5311 250° West 404 465 28,000 -2,400 Descending Denver Center
03:49PM 39.5336 -105.6661 250° West 397 457 25,100 -1,980 Descending Denver Center
03:50PM 39.5231 -105.8100 265° West 396 456 24,000 -540 Descending Denver Center
03:51PM 39.5150 -105.9467 266° West 386 444 24,000  Level Denver Center
03:52PM 39.5017 -106.1147 264° West 391 450 24,000 -60 Level Denver Center
03:53PM 39.4911 -106.2544 264° West 396 456 23,900 -1,140 Descending Denver Center
03:54PM 39.4783 -106.4175 264° West 384 442 21,500 -2,040 Descending Denver Center
03:55PM 39.4675 -106.5503 264° West 362 417 19,300 -2,160 Descending Denver Center
03:56PM 39.4581 -106.6661 264° West 344 396 17,100 -2,340 Descending Denver Center
03:57PM 39.4494 -106.7728 264° West 293 337 14,500 -1,920 Descending Denver Center
03:58PM 39.4286 -106.8600 253° West 251 289 13,200 -1,320 Descending Denver Center
03:59PM 39.3850 -106.9156 225° Southwest 228 262 11,800 -1,380 Descending Denver Center
04:00PM 39.3317 -106.9081 174° South 204 235 10,400 -1,620 Descending Denver Center
04:01PM 39.2814 -106.8964 170° South 178 205 8,500 -1,860 Descending Denver Center
04:03PM 39.2167 -106.8667 180° South  Level FlightAware Approximate